.
WxDataArchive / Data Records for 2008-11-28
2008-11-27 November 2008 2008-11-29

Data Records for Friday, 28 November 2008

Time	Temp	Chill	HIndex	Humid	Dewpt	 Wind 	HiWind	WindDir	Rain 	Barom 
-----	----	-----	------	-----	-----	------	------	-------	-----	----- 
00:00	37.5	37.5	37.5	66	27.2	2	4	248	0.00	29.817 
00:05	37.5	37.5	37.5	67	27.6	1	4	248	0.00	29.816 
00:10	37.5	37.5	37.5	67	27.6	2	4	270	0.00	29.817 
00:15	37.5	37.5	37.5	67	27.6	3	6	270	0.00	29.816 
00:20	37.3	37.3	37.3	67	27.4	2	4	248	0.00	29.811 
00:25	37.0	37.0	37.0	68	27.4	2	6	248	0.00	29.814 
00:30	36.9	36.9	36.9	68	27.3	3	7	248	0.00	29.815 
00:35	36.6	36.6	36.6	69	27.4	3	7	248	0.00	29.817 
00:40	36.6	36.6	36.6	69	27.4	2	6	270	0.00	29.815 
00:45	36.6	36.6	36.6	69	27.4	2	7	270	0.00	29.814 
00:50	36.6	36.6	36.6	69	27.4	2	4	270	0.00	29.816 
00:55	36.6	36.6	36.6	69	27.4	2	4	248	0.00	29.814 
01:00	36.6	36.6	36.6	69	27.4	3	7	270	0.00	29.812 
01:05	36.5	36.5	36.5	69	27.3	2	6	248	0.00	29.806 
01:10	36.3	36.3	36.3	69	27.1	2	5	248	0.00	29.805 
01:15	36.0	36.0	36.0	70	27.2	2	5	248	0.00	29.808 
01:20	35.8	35.8	35.8	70	27.0	3	10	248	0.00	29.806 
01:25	35.5	35.5	35.5	71	27.0	2	6	248	0.00	29.807 
01:30	35.2	35.2	35.2	71	26.8	2	5	248	0.00	29.807 
01:35	34.7	34.7	34.7	72	26.6	2	5	248	0.00	29.807 
01:40	34.3	34.3	34.3	73	26.6	2	6	248	0.00	29.806 
01:45	34.0	34.0	34.0	73	26.3	3	10	248	0.00	29.808 
01:50	33.7	33.7	33.7	73	26.0	2	7	248	0.00	29.807 
01:55	33.4	33.4	33.4	74	26.0	2	6	248	0.00	29.810 
02:00	33.2	33.2	33.2	74	25.8	3	7	248	0.00	29.810 
02:05	33.1	33.1	33.1	74	25.7	2	6	248	0.00	29.811 
02:10	32.9	32.9	32.9	74	25.5	2	9	248	0.00	29.809 
02:15	32.8	32.8	32.8	74	25.4	3	8	248	0.00	29.815 
02:20	32.7	32.7	32.7	74	25.3	3	7	248	0.00	29.817 
02:25	32.7	28.9	32.7	74	25.3	4	11	248	0.00	29.819 
02:30	32.7	28.9	32.7	74	25.3	4	11	248	0.00	29.818 
02:35	32.7	28.9	32.7	74	25.3	4	10	248	0.00	29.819 
02:40	32.5	32.5	32.5	74	25.2	3	7	248	0.00	29.820 
02:45	32.4	32.4	32.4	75	25.4	2	5	248	0.00	29.821 
02:50	32.2	32.2	32.2	75	25.2	3	6	270	0.00	29.822 
02:55	32.1	28.2	32.1	76	25.4	4	13	248	0.00	29.821 
03:00	32.1	32.1	32.1	76	25.4	3	9	248	0.00	29.822 
03:05	31.9	31.9	31.9	77	25.5	2	6	270	0.00	29.830 
03:10	31.8	31.8	31.8	77	25.4	2	6	270	0.00	29.829 
03:15	31.6	31.6	31.6	77	25.2	3	9	248	0.00	29.832 
03:20	31.6	31.6	31.6	78	25.5	2	5	248	0.00	29.829 
03:25	31.5	31.5	31.5	79	25.8	3	6	248	0.00	29.825 
03:30	31.3	31.3	31.3	79	25.6	2	8	248	0.00	29.826 
03:35	31.3	31.3	31.3	79	25.6	2	8	248	0.00	29.826 
03:40	31.2	31.2	31.2	80	25.8	3	9	270	0.00	29.827 
03:45	31.0	31.0	31.0	80	25.6	2	6	248	0.00	29.827 
03:50	30.9	30.9	30.9	80	25.5	2	8	248	0.00	29.826 
03:55	30.7	30.7	30.7	81	25.6	2	4	248	0.00	29.825 
04:00	30.7	30.7	30.7	81	25.6	2	9	248	0.00	29.823 
04:05	30.6	30.6	30.6	81	25.5	2	6	270	0.00	29.825 
04:10	30.4	30.4	30.4	81	25.3	2	6	270	0.00	29.826 
04:15	30.3	30.3	30.3	81	25.2	1	2	270	0.00	29.827 
04:20	30.3	30.3	30.3	82	25.5	2	4	248	0.00	29.832 
04:25	30.3	30.3	30.3	82	25.5	1	4	248	0.00	29.833 
04:30	30.3	30.3	30.3	82	25.5	1	5	225	0.00	29.832 
04:35	30.1	30.1	30.1	82	25.3	1	3	248	0.00	29.834 
04:40	30.1	30.1	30.1	82	25.3	1	4	248	0.00	29.832 
04:45	30.1	30.1	30.1	81	25.0	1	3	248	0.00	29.832 
04:50	30.1	30.1	30.1	81	25.0	1	3	248	0.00	29.834 
04:55	30.1	30.1	30.1	81	25.0	2	6	248	0.00	29.834 
05:00	30.1	30.1	30.1	81	25.0	1	4	248	0.00	29.832 
05:05	30.1	30.1	30.1	81	25.0	1	4	248	0.00	29.833 
05:10	30.1	30.1	30.1	81	25.0	2	5	248	0.00	29.831 
05:15	30.1	30.1	30.1	81	25.0	2	5	248	0.00	29.835 
05:20	30.1	30.1	30.1	81	25.0	1	5	248	0.00	29.835 
05:25	30.0	30.0	30.0	81	24.9	1	3	248	0.00	29.838 
05:30	30.0	30.0	30.0	81	24.9	2	4	248	0.00	29.838 
05:35	30.0	30.0	30.0	81	24.9	3	5	248	0.00	29.840 
05:40	30.0	30.0	30.0	81	24.9	2	7	248	0.00	29.841 
05:45	29.8	29.8	29.8	81	24.7	2	5	248	0.00	29.842 
05:50	30.0	30.0	30.0	81	24.9	2	7	248	0.00	29.843 
05:55	29.8	29.8	29.8	81	24.7	2	5	248	0.00	29.842 
06:00	29.8	29.8	29.8	81	24.7	2	6	248	0.00	29.843 
06:05	29.7	29.7	29.7	81	24.6	2	5	248	0.00	29.850 
06:10	29.7	29.7	29.7	81	24.6	2	6	248	0.00	29.852 
06:15	29.7	29.7	29.7	80	24.3	2	6	248	0.00	29.851 
06:20	29.7	29.7	29.7	80	24.3	1	3	225	0.00	29.850 
06:25	29.5	29.5	29.5	80	24.1	2	5	270	0.00	29.854 
06:30	29.5	29.5	29.5	80	24.1	1	3	248	0.00	29.858 
06:35	29.5	29.5	29.5	80	24.1	2	5	248	0.00	29.859 
06:40	29.5	29.5	29.5	80	24.1	1	3	248	0.00	29.859 
06:45	29.5	29.5	29.5	80	24.1	1	4	248	0.00	29.861 
06:50	29.4	29.4	29.4	80	24.0	1	4	270	0.00	29.866 
06:55	29.4	29.4	29.4	80	24.0	1	3	270	0.00	29.867 
07:00	29.4	29.4	29.4	80	24.0	1	2	248	0.00	29.873 
07:05	29.4	29.4	29.4	80	24.0	1	3	248	0.00	29.875 
07:10	29.4	29.4	29.4	80	24.0	2	4	248	0.00	29.874 
07:15	29.4	29.4	29.4	80	24.0	2	6	248	0.00	29.873 
07:20	29.4	29.4	29.4	80	24.0	1	6	248	0.00	29.873 
07:25	29.4	29.4	29.4	79	23.7	2	5	248	0.00	29.877 
07:30	29.5	29.5	29.5	79	23.8	1	5	248	0.00	29.877 
07:35	29.4	29.4	29.4	79	23.7	1	5	248	0.00	29.882 
07:40	29.4	29.4	29.4	79	23.7	2	5	248	0.00	29.884 
07:45	29.5	29.5	29.5	79	23.8	3	5	248	0.00	29.884 
07:50	29.5	29.5	29.5	79	23.8	2	5	248	0.00	29.882 
07:55	29.4	29.4	29.4	79	23.7	1	4	248	0.00	29.882 
08:00	29.4	29.4	29.4	78	23.4	2	5	248	0.00	29.881 
08:05	29.4	29.4	29.4	78	23.4	2	5	248	0.00	29.883 
08:10	29.4	29.4	29.4	78	23.4	2	5	248	0.00	29.885 
08:15	29.4	29.4	29.4	78	23.4	3	6	248	0.00	29.885 
08:20	29.5	29.5	29.5	78	23.5	2	10	248	0.00	29.885 
08:25	29.5	29.5	29.5	78	23.5	2	5	248	0.00	29.885 
08:30	29.5	29.5	29.5	78	23.5	2	7	248	0.00	29.884 
08:35	29.5	29.5	29.5	78	23.5	2	7	248	0.00	29.889 
08:40	29.7	29.7	29.7	77	23.4	2	7	248	0.00	29.890 
08:45	29.7	29.7	29.7	77	23.4	2	7	248	0.00	29.890 
08:50	29.7	29.7	29.7	77	23.4	3	10	248	0.00	29.890 
08:55	29.8	29.8	29.8	77	23.5	2	8	248	0.00	29.893 
09:00	29.8	29.8	29.8	76	23.2	3	6	248	0.00	29.894 
09:05	29.8	29.8	29.8	76	23.2	2	5	248	0.00	29.895 
09:10	30.1	30.1	30.1	76	23.5	2	6	248	0.00	29.896 
09:15	30.3	30.3	30.3	76	23.7	3	12	248	0.00	29.897 
09:20	30.6	30.6	30.6	75	23.6	3	8	248	0.00	29.896 
09:25	30.9	30.9	30.9	74	23.6	3	7	248	0.00	29.894 
09:30	31.0	31.0	31.0	74	23.7	2	9	248	0.00	29.895 
09:35	31.2	27.2	31.2	74	23.9	4	10	248	0.00	29.897 
09:40	31.3	31.3	31.3	73	23.7	2	9	248	0.00	29.897 
09:45	31.5	31.5	31.5	73	23.9	3	7	270	0.00	29.896 
09:50	31.9	31.9	31.9	73	24.2	3	10	248	0.00	29.897 
09:55	32.4	32.4	32.4	72	24.4	3	6	248	0.00	29.900 
10:00	32.7	32.7	32.7	72	24.7	3	6	248	0.00	29.901 
10:05	32.9	29.1	32.9	71	24.5	4	10	270	0.00	29.901 
10:10	33.2	33.2	33.2	71	24.8	3	9	270	0.00	29.903 
10:15	33.2	33.2	33.2	70	24.5	3	9	270	0.00	29.906 
10:20	33.4	33.4	33.4	70	24.7	3	6	270	0.00	29.907 
10:25	33.5	33.5	33.5	71	25.1	2	9	270	0.00	29.907 
10:30	34.0	34.0	34.0	71	25.6	2	9	248	0.00	29.908 
10:35	34.4	30.8	34.4	69	25.3	4	10	248	0.00	29.908 
10:40	35.2	35.2	35.2	70	26.4	3	10	270	0.00	29.916 
10:45	35.5	35.5	35.5	67	25.6	3	6	270	0.00	29.916 
10:50	36.0	36.0	36.0	67	26.1	2	6	270	0.00	29.918 
10:55	36.2	36.2	36.2	66	26.0	3	8	270	0.00	29.918 
11:00	36.0	36.0	36.0	66	25.8	3	9	270	0.00	29.915 
11:05	36.2	36.2	36.2	66	26.0	2	7	270	0.00	29.917 
11:10	36.6	36.6	36.6	66	26.3	3	6	270	0.00	29.918 
11:15	36.8	36.8	36.8	65	26.2	3	6	270	0.00	29.917 
11:20	37.0	37.0	37.0	65	26.3	3	11	248	0.00	29.918 
11:25	37.3	37.3	37.3	65	26.6	3	12	270	0.00	29.918 
11:30	37.3	37.3	37.3	64	26.3	3	6	270	0.00	29.916 
11:35	37.2	37.2	37.2	64	26.2	3	7	270	0.00	29.912 
11:40	37.3	37.3	37.3	64	26.3	3	6	248	0.00	29.910 
11:45	37.8	37.8	37.8	64	26.7	3	9	270	0.00	29.903 
11:50	38.0	38.0	38.0	62	26.2	3	7	248	0.00	29.902 
11:55	37.8	37.8	37.8	61	25.6	2	6	270	0.00	29.902 
12:00	37.9	37.9	37.9	61	25.7	3	5	270	0.00	29.901 
12:05	38.0	38.0	38.0	60	25.4	3	9	270	0.00	29.900 
12:10	38.3	38.3	38.3	60	25.6	2	5	270	0.00	29.898 
12:15	38.5	38.5	38.5	60	25.8	2	6	270	0.00	29.894 
12:20	38.9	38.9	38.9	59	25.8	2	6	292	0.00	29.893 
12:25	39.1	39.1	39.1	58	25.6	3	9	248	0.00	29.889 
12:30	38.9	38.9	38.9	57	25.0	3	10	270	0.00	29.886 
12:35	38.8	38.8	38.8	56	24.5	3	7	270	0.00	29.886 
12:40	38.6	34.8	38.6	56	24.3	5	11	248	0.00	29.886 
12:45	38.8	38.8	38.8	56	24.5	3	6	270	0.00	29.885 
12:50	38.9	38.9	38.9	57	25.0	2	4	270	0.00	29.884 
12:55	39.2	39.2	39.2	56	24.8	3	10	270	0.00	29.884 
13:00	39.3	36.5	39.3	55	24.5	4	7	270	0.00	29.883 
13:05	39.3	39.3	39.3	56	24.9	2	6	248	0.00	29.887 
13:10	39.6	39.6	39.6	56	25.2	3	9	248	0.00	29.887 
13:15	39.8	39.8	39.8	56	25.4	3	7	270	0.00	29.887 
13:20	40.1	37.4	40.1	54	24.8	4	10	248	0.00	29.888 
13:25	40.1	40.1	40.1	54	24.8	3	9	270	0.00	29.887 
13:30	40.2	40.2	40.2	55	25.3	3	10	270	0.00	29.888 
13:35	40.3	40.3	40.3	54	25.0	3	7	270	0.00	29.887 
13:40	40.5	40.5	40.5	53	24.7	3	7	270	0.00	29.885 
13:45	40.3	40.3	40.3	54	25.0	3	9	270	0.00	29.885 
13:50	40.8	40.8	40.8	53	25.0	2	5	270	0.00	29.882 
13:55	41.1	41.1	41.1	52	24.8	3	12	270	0.00	29.878 
14:00	41.2	41.2	41.2	53	25.4	3	9	248	0.00	29.876 
14:05	41.3	41.3	41.3	52	25.0	2	4	248	0.00	29.875 
14:10	41.5	41.5	41.5	51	24.7	3	10	270	0.00	29.874 
14:15	41.6	41.6	41.6	50	24.4	2	4	270	0.00	29.872 
14:20	41.6	41.6	41.6	49	23.9	3	7	270	0.00	29.873 
14:25	41.6	41.6	41.6	49	23.9	3	7	270	0.00	29.873 
14:30	41.9	41.9	41.9	49	24.1	1	3	248	0.00	29.875 
14:35	41.9	41.9	41.9	49	24.1	2	5	270	0.00	29.872 
14:40	41.8	41.8	41.8	50	24.5	2	5	270	0.00	29.872 
14:45	41.8	41.8	41.8	51	25.0	2	6	248	0.00	29.873 
14:50	41.8	41.8	41.8	49	24.1	3	7	270	0.00	29.872 
14:55	41.9	41.9	41.9	49	24.1	1	4	270	0.00	29.873 
15:00	42.1	42.1	42.1	49	24.3	2	6	248	0.00	29.875 
15:05	42.1	42.1	42.1	48	23.8	2	7	270	0.00	29.878 
15:10	41.9	41.9	41.9	48	23.7	3	11	270	0.00	29.883 
15:15	41.8	41.8	41.8	49	24.1	2	4	248	0.00	29.885 
15:20	41.8	41.8	41.8	49	24.1	2	5	248	0.00	29.885 
15:25	41.6	41.6	41.6	50	24.4	2	5	248	0.00	29.886 
15:30	41.9	41.9	41.9	48	23.7	3	7	248	0.00	29.886 
15:35	41.9	41.9	41.9	49	24.1	1	3	248	0.00	29.885 
15:40	41.6	41.6	41.6	50	24.4	1	4	270	0.00	29.884 
15:45	41.8	41.8	41.8	50	24.5	1	4	270	0.00	29.884 
15:50	42.1	42.1	42.1	49	24.3	2	6	270	0.00	29.887 
15:55	41.9	41.9	41.9	49	24.1	1	4	270	0.00	29.886 
16:00	41.6	41.6	41.6	48	23.4	1	4	248	0.00	29.888 
16:05	41.3	41.3	41.3	50	24.1	1	4	248	0.00	29.890 
16:10	41.1	41.1	41.1	50	23.9	1	4	270	0.00	29.889 
16:15	40.9	40.9	40.9	50	23.7	2	4	270	0.00	29.890 
16:20	40.8	40.8	40.8	50	23.6	2	4	270	0.00	29.890 
16:25	40.6	40.6	40.6	50	23.4	1	3	248	0.00	29.890 
16:30	40.5	40.5	40.5	50	23.3	1	5	248	0.00	29.889 
16:35	40.3	40.3	40.3	50	23.2	1	4	270	0.00	29.889 
16:40	40.2	40.2	40.2	51	23.5	1	3	270	0.00	29.890 
16:45	40.1	40.1	40.1	51	23.4	1	4	248	0.00	29.890 
16:50	39.9	39.9	39.9	50	22.8	1	4	248	0.00	29.890 
16:55	39.6	39.6	39.6	51	23.0	0	2	248	0.00	29.891 
17:00	39.3	39.3	39.3	51	22.7	0	2	248	0.00	29.893 
17:05	39.1	39.1	39.1	52	23.0	1	3	248	0.00	29.893 
17:10	38.9	38.9	38.9	52	22.8	0	1	248	0.00	29.894 
17:15	38.6	38.6	38.6	53	23.0	0	1	248	0.00	29.898 
17:20	38.2	38.2	38.2	54	23.0	0	1	248	0.00	29.902 
17:25	37.9	37.9	37.9	54	22.8	0	1	248	0.00	29.905 
17:30	37.6	37.6	37.6	55	22.9	0	1	248	0.00	29.907 
17:35	37.2	37.2	37.2	56	23.0	0	1	248	0.00	29.909 
17:40	36.9	36.9	36.9	56	22.7	0	0	---	0.00	29.910 
17:45	36.5	36.5	36.5	57	22.7	0	1	248	0.00	29.911 
17:50	36.2	36.2	36.2	57	22.5	0	1	248	0.00	29.911 
17:55	36.0	36.0	36.0	58	22.7	0	1	248	0.00	29.912 
18:00	35.8	35.8	35.8	59	22.9	0	1	248	0.00	29.912 
18:05	35.6	35.6	35.6	61	23.5	0	2	248	0.00	29.913 
18:10	35.8	35.8	35.8	62	24.1	0	3	248	0.00	29.912 
18:15	35.8	35.8	35.8	63	24.5	0	2	248	0.00	29.912 
18:20	35.6	35.6	35.6	63	24.3	0	1	248	0.00	29.911 
18:25	35.5	35.5	35.5	64	24.5	0	1	248	0.00	29.911 
18:30	35.3	35.3	35.3	65	24.7	0	1	248	0.00	29.912 
18:35	35.2	35.2	35.2	65	24.6	0	1	248	0.00	29.912 
18:40	34.9	34.9	34.9	66	24.7	0	1	248	0.00	29.913 
18:45	34.7	34.7	34.7	66	24.5	0	0	---	0.00	29.914 
18:50	34.6	34.6	34.6	67	24.8	0	2	248	0.00	29.915 
18:55	34.6	34.6	34.6	67	24.8	0	1	248	0.00	29.915 
19:00	34.4	34.4	34.4	67	24.6	0	1	248	0.00	29.919 
19:05	34.3	34.3	34.3	67	24.5	0	1	248	0.00	29.918 
19:10	34.0	34.0	34.0	68	24.6	0	1	248	0.00	29.917 
19:15	33.8	33.8	33.8	68	24.4	0	1	248	0.00	29.919 
19:20	33.7	33.7	33.7	68	24.3	0	1	248	0.00	29.921 
19:25	33.5	33.5	33.5	69	24.4	0	2	248	0.00	29.923 
19:30	33.5	33.5	33.5	68	24.1	0	1	248	0.00	29.924 
19:35	33.4	33.4	33.4	68	24.0	0	0	---	0.00	29.927 
19:40	33.2	33.2	33.2	69	24.2	0	1	248	0.00	29.928 
19:45	32.8	32.8	32.8	69	23.8	0	0	---	0.00	29.929 
19:50	32.5	32.5	32.5	69	23.5	0	1	248	0.00	29.930 
19:55	32.1	32.1	32.1	70	23.4	0	1	248	0.00	29.932 
20:00	31.6	31.6	31.6	70	23.0	0	0	---	0.00	29.932 
20:05	31.5	31.5	31.5	73	23.9	0	2	248	0.00	29.931 
20:10	31.9	31.9	31.9	73	24.2	1	3	248	0.00	29.930 
20:15	32.4	32.4	32.4	72	24.4	0	2	248	0.00	29.931 
20:20	32.7	32.7	32.7	72	24.7	1	4	225	0.00	29.932 
20:25	32.9	32.9	32.9	71	24.5	1	2	225	0.00	29.933 
20:30	33.1	33.1	33.1	71	24.7	0	3	248	0.00	29.931 
20:35	33.1	33.1	33.1	71	24.7	1	4	248	0.00	29.930 
20:40	33.1	33.1	33.1	71	24.7	0	3	248	0.00	29.930 
20:45	33.1	33.1	33.1	71	24.7	0	3	225	0.00	29.931 
20:50	33.1	33.1	33.1	71	24.7	0	1	225	0.00	29.933 
20:55	32.9	32.9	32.9	72	24.9	0	2	225	0.00	29.934 
21:00	32.8	32.8	32.8	72	24.8	0	1	225	0.00	29.937 
21:05	32.7	32.7	32.7	72	24.7	0	1	225	0.00	29.934 
21:10	32.5	32.5	32.5	73	24.8	0	1	225	0.00	29.937 
21:15	32.4	32.4	32.4	73	24.7	0	1	225	0.00	29.942 
21:20	32.2	32.2	32.2	73	24.5	0	1	225	0.00	29.943 
21:25	31.9	31.9	31.9	74	24.6	0	1	225	0.00	29.943 
21:30	31.8	31.8	31.8	74	24.5	0	1	225	0.00	29.943 
21:35	31.8	31.8	31.8	74	24.5	0	1	225	0.00	29.943 
21:40	31.6	31.6	31.6	75	24.6	0	1	225	0.00	29.943 
21:45	31.6	31.6	31.6	75	24.6	0	1	225	0.00	29.943 
21:50	31.6	31.6	31.6	75	24.6	0	1	225	0.00	29.943 
21:55	31.6	31.6	31.6	75	24.6	0	2	225	0.00	29.944 
22:00	31.8	31.8	31.8	76	25.1	0	2	225	0.00	29.944 
22:05	31.8	31.8	31.8	75	24.8	0	2	225	0.00	29.940 
22:10	31.8	31.8	31.8	75	24.8	0	2	225	0.00	29.939 
22:15	31.8	31.8	31.8	75	24.8	0	3	225	0.00	29.938 
22:20	31.6	31.6	31.6	76	24.9	0	1	225	0.00	29.937 
22:25	31.5	31.5	31.5	76	24.8	0	1	225	0.00	29.935 
22:30	31.3	31.3	31.3	76	24.6	0	1	225	0.00	29.936 
22:35	31.2	31.2	31.2	76	24.5	0	2	225	0.00	29.933 
22:40	31.2	31.2	31.2	76	24.5	0	1	225	0.00	29.933 
22:45	31.0	31.0	31.0	77	24.7	0	1	225	0.00	29.933 
22:50	30.9	30.9	30.9	77	24.6	0	1	225	0.00	29.933 
22:55	30.7	30.7	30.7	77	24.4	0	1	225	0.00	29.937 
23:00	30.6	30.6	30.6	77	24.3	0	1	225	0.00	29.937 
23:05	30.6	30.6	30.6	78	24.6	0	1	225	0.00	29.936 
23:10	30.6	30.6	30.6	78	24.6	1	2	225	0.00	29.936 
23:15	30.6	30.6	30.6	78	24.6	0	1	225	0.00	29.936 
23:20	30.7	30.7	30.7	78	24.7	1	3	225	0.00	29.933 
23:25	30.7	30.7	30.7	78	24.7	0	3	225	0.00	29.933 
23:30	30.7	30.7	30.7	78	24.7	0	2	225	0.00	29.933 
23:35	30.7	30.7	30.7	78	24.7	1	2	225	0.00	29.934 
23:40	30.7	30.7	30.7	78	24.7	1	3	248	0.00	29.934 
23:45	30.7	30.7	30.7	77	24.4	0	1	248	0.00	29.934 
23:50	30.6	30.6	30.6	77	24.3	0	3	248	0.00	29.934 
23:55	30.6	30.6	30.6	77	24.3	0	3	248	0.00	29.935 

CoCoRaHS
IN-AL-39
A2 Web Hosting
Creative Commons License
GoDaddy
search engine by freefind advanced

loaded 2018-11-21 00:27:50 • last modified 2010-11-18 10:43:29
Privacy PolicyDisclaimer
• wx.awcolley.com is powered by PmWiki v.2002016 •
• all content (unless otherwise noted) © 2018 A W Colley